• Join FlightAware (Why Join?)
  • Login
  • US Flag 
10:41PM EDT


 

Airport Tracker/Info


-or-


 

Live Flight TrackerFlight Track Log ✈ ASA238 ✈ 24-Apr-2013 ✈ KSAN - MMSD / SJD

Flight Track Log - Related Links

Times and Time Zones

All times are in EDT time to prevent confusion due to time zone crossing. See the ASA238 flight status page for this flight to view local times or setup timezone preferences in your user account.

Time Position Orientation Groundspeed Altitude Reporting Facility
EDT Latitude Longitude Course Direction KTS MPH feet Rate Location/Type
03:30PM 32.7500 -117.2333 287° West 172 198 1,700  Level Southern California TRACON
03:31PM 32.7667 -117.3000 287° West 227 261 4,200 2,460 Climbing Southern California TRACON
03:32PM 32.7000 -117.3167 192° South 255 293 6,700 2,580 Climbing Southern California TRACON
03:33PM 32.6675 -117.2969 153° Southeast 247 284 8,800 3,180 Climbing Los Angeles Center
03:34PM 32.5894 -117.2442 150° Southeast 265 305 12,400 3,420 Climbing Los Angeles Center
03:34PM 32.5667 -117.2333 158° South 289 333 13,400 3,180 Climbing Southern California TRACON
03:35PM 32.5000 -117.1833 148° Southeast 292 336 16,600 2,580 Climbing Southern California TRACON
03:37PM 32.3711 -117.1039 152° Southeast 305 351 20,800 2,340 Climbing Los Angeles Center
03:38PM 32.2914 -117.0533 152° Southeast 320 368 23,300 2,340 Climbing Los Angeles Center
03:39PM 32.1939 -116.9911 152° Southeast 330 380 25,700 1,980 Climbing Los Angeles Center
03:40PM 32.1089 -116.9361 151° Southeast 344 396 27,500 1,560 Climbing Los Angeles Center
03:41PM 32.0197 -116.8792 152° Southeast 360 414 29,000 1,440 Climbing Los Angeles Center
03:42PM 31.9292 -116.8214 152° Southeast 369 425 30,500 1,200 Climbing Los Angeles Center
03:43PM 31.8339 -116.7606 152° Southeast 385 443 31,600 1,200 Climbing Los Angeles Center
03:44PM 31.7375 -116.6986 151° Southeast 393 452 33,100 1,560 Climbing Los Angeles Center
03:45PM 31.6217 -116.6283 153° Southeast 393 452 34,900 1,740 Climbing Los Angeles Center
03:47PM 31.4882 -116.5347 149° Southeast  Level FlightAware Approximate
03:54PM 30.7995 -116.0943 157° South  Level FlightAware Approximate
03:55PM 30.6958 -116.0442 157° South  Level FlightAware Approximate
03:56PM 30.5919 -115.9942 157° South  Level FlightAware Approximate
03:57PM 30.4911 -115.9391 133° Southeast  Level FlightAware Approximate
03:58PM 30.4139 -115.8445 133° Southeast  Level FlightAware Approximate
03:59PM 30.3365 -115.7500 133° Southeast  Level FlightAware Approximate
04:00PM 30.2591 -115.6557 134° Southeast  Level FlightAware Approximate
04:01PM 30.1816 -115.5615 134° Southeast  Level FlightAware Approximate
04:02PM 30.1040 -115.4675 134° Southeast  Level FlightAware Approximate
04:03PM 30.0264 -115.3736 134° Southeast  Level FlightAware Approximate
04:04PM 29.9487 -115.2798 134° Southeast  Level FlightAware Approximate
04:05PM 29.8710 -115.1862 134° Southeast  Level FlightAware Approximate
04:06PM 29.7932 -115.0928 134° Southeast  Level FlightAware Approximate
04:07PM 29.7153 -114.9995 134° Southeast  Level FlightAware Approximate
04:08PM 29.6373 -114.9063 134° Southeast  Level FlightAware Approximate
04:09PM 29.5593 -114.8133 134° Southeast  Level FlightAware Approximate
04:10PM 29.4812 -114.7204 134° Southeast  Level FlightAware Approximate
04:11PM 29.4035 -114.6272 134° Southeast  Level FlightAware Approximate
04:12PM 29.3261 -114.5338 134° Southeast  Level FlightAware Approximate
04:13PM 29.2485 -114.4405 134° Southeast  Level FlightAware Approximate
04:14PM 29.1709 -114.3474 134° Southeast  Level FlightAware Approximate
04:15PM 29.0933 -114.2544 134° Southeast  Level FlightAware Approximate
04:16PM 29.0156 -114.1615 134° Southeast  Level FlightAware Approximate
04:17PM 28.9375 -114.0692 135° Southeast  Level FlightAware Approximate
04:18PM 28.8574 -113.9791 135° Southeast  Level FlightAware Approximate
04:19PM 28.7773 -113.8892 135° Southeast  Level FlightAware Approximate
04:20PM 28.6971 -113.7994 136° Southeast  Level FlightAware Approximate
04:21PM 28.6168 -113.7098 136° Southeast  Level FlightAware Approximate
04:22PM 28.5365 -113.6203 136° Southeast  Level FlightAware Approximate
04:23PM 28.4561 -113.5309 136° Southeast  Level FlightAware Approximate
04:24PM 28.3757 -113.4417 136° Southeast  Level FlightAware Approximate
04:25PM 28.2952 -113.3525 136° Southeast  Level FlightAware Approximate
04:26PM 28.2147 -113.2636 136° Southeast  Level FlightAware Approximate
04:27PM 28.1341 -113.1747 136° Southeast  Level FlightAware Approximate
04:28PM 28.0534 -113.0860 136° Southeast  Level FlightAware Approximate
04:29PM 27.9727 -112.9975 136° Southeast  Level FlightAware Approximate
04:30PM 27.8920 -112.9090 136° Southeast  Level FlightAware Approximate
04:31PM 27.8111 -112.8207 136° Southeast  Level FlightAware Approximate
04:32PM 27.7303 -112.7326 136° Southeast  Level FlightAware Approximate
04:33PM 27.6493 -112.6445 136° Southeast  Level FlightAware Approximate
04:34PM 27.5683 -112.5566 136° Southeast  Level FlightAware Approximate
04:35PM 27.4873 -112.4688 136° Southeast  Level FlightAware Approximate
04:36PM 27.4062 -112.3812 136° Southeast  Level FlightAware Approximate
04:37PM 27.3250 -112.2936 136° Southeast  Level FlightAware Approximate
04:38PM 27.2332 -112.2221 149° Southeast  Level FlightAware Approximate
04:39PM 27.1367 -112.1572 148° Southeast  Level FlightAware Approximate
04:40PM 27.0418 -112.0896 148° Southeast  Level FlightAware Approximate
04:41PM 26.9469 -112.0221 148° Southeast  Level FlightAware Approximate
04:42PM 26.8519 -111.9548 148° Southeast  Level FlightAware Approximate
04:43PM 26.7569 -111.8875 148° Southeast  Level FlightAware Approximate
04:44PM 26.6619 -111.8204 148° Southeast  Level FlightAware Approximate
04:45PM 26.5668 -111.7534 148° Southeast  Level FlightAware Approximate
04:46PM 26.4717 -111.6865 148° Southeast  Level FlightAware Approximate
04:47PM 26.3766 -111.6197 148° Southeast  Level FlightAware Approximate
04:48PM 26.2814 -111.5530 148° Southeast  Level FlightAware Approximate
04:49PM 26.1862 -111.4864 148° Southeast  Level FlightAware Approximate
04:50PM 26.0910 -111.4199 148° Southeast  Level FlightAware Approximate
04:51PM 25.9958 -111.3536 148° Southeast  Level FlightAware Approximate
04:52PM 25.9169 -111.2664 130° Southeast  Level FlightAware Approximate
04:53PM 25.8452 -111.1703 130° Southeast  Level FlightAware Approximate
04:54PM 25.7735 -111.0742 130° Southeast  Level FlightAware Approximate
04:55PM 25.7016 -110.9782 130° Southeast  Level FlightAware Approximate
04:56PM 25.6297 -110.8824 130° Southeast  Level FlightAware Approximate
04:57PM 25.5578 -110.7867 130° Southeast  Level FlightAware Approximate
04:58PM 25.4858 -110.6911 130° Southeast  Level FlightAware Approximate
04:59PM 25.4137 -110.5956 130° Southeast  Level FlightAware Approximate
05:00PM 25.3417 -110.5001 130° Southeast  Level FlightAware Approximate
05:01PM 25.2690 -110.4053 131° Southeast  Level FlightAware Approximate
05:02PM 25.1959 -110.3110 129° Southeast  Level FlightAware Approximate
05:03PM 25.1249 -110.2148 129° Southeast  Level FlightAware Approximate
05:04PM 25.0539 -110.1186 129° Southeast  Level FlightAware Approximate
05:05PM 24.9828 -110.0226 129° Southeast  Level FlightAware Approximate
05:06PM 24.9116 -109.9266 130° Southeast  Level FlightAware Approximate
05:07PM 24.8390 -109.8321 131° Southeast  Level FlightAware Approximate
05:08PM 24.7594 -109.7455 150° Southeast  Level FlightAware Approximate
05:09PM 24.6617 -109.6844 150° Southeast  Level FlightAware Approximate
05:10PM 24.5685 -109.6156 144° Southeast  Level FlightAware Approximate
05:11PM 24.4771 -109.5438 144° Southeast  Level FlightAware Approximate
05:12PM 24.3849 -109.4733 149° Southeast  Level FlightAware Approximate
05:13PM 24.2873 -109.4200 193° South  Level FlightAware Approximate
05:14PM 24.1780 -109.4486 193° South  Level FlightAware Approximate
05:15PM 24.0687 -109.4771 193° South  Level FlightAware Approximate
05:16PM 23.9593 -109.5056 193° South  Level FlightAware Approximate
05:17PM 23.8492 -109.5280 191° South  Level FlightAware Approximate
05:18PM 23.7393 -109.5536 197° South  Level FlightAware Approximate
05:19PM 23.6319 -109.5894 197° South  Level FlightAware Approximate
05:20PM 23.5236 -109.6219 190° South  Level FlightAware Approximate
05:21PM 23.4131 -109.6441 190° South  Level FlightAware Approximate
05:22PM 23.3035 -109.6667 180° South  Level FlightAware Approximate
05:23PM 23.1969 -109.7039 190° South  Level FlightAware Approximate
05:24PM 23.1518 -109.7210 190° South  Level Estimated
05:25PM 23.1518 -109.7210 190° South  Level Estimated
05:26PM 23.1518 -109.7210 190° South  Level Estimated
05:27PM 23.1518 -109.7210 190° South  Level Estimated
05:28PM 23.1518 -109.7210 190° South  Level Estimated
05:29PM 23.1518 -109.7210 190° South  Level Estimated
05:30PM 23.1518 -109.7210 190° South  Level Estimated
05:31PM 23.1518 -109.7210 190° South  Level Estimated
05:32PM 23.1518 -109.7210 190° South  Level Estimated
05:33PM 23.1518 -109.7210 190° South  Level Estimated
05:34PM 23.1518 -109.7210 190° South  Level Estimated
05:35PM 23.1518 -109.7210 190° South  Level Estimated
05:36PM 23.1518 -109.7210 190° South  Level Estimated